Time;durP1;ratioP1;P1;durP2;ratioP2;P2;SDS_P1;SDS_P2;PMS_P1;PMS_P2;Temp;Humidity;BMP_temperature;BMP_pressure;BME280_temperature;BME280_humidity;BME280_pressure;Samples;Min_cycle;Max_cycle;Signal;HPM_P1;HPM_P2
2023/07/29 00:00:11;;;;;;;9.73;6.85;;;17.60;99.90;;;;;;5020275;28;20049;-85
2023/07/29 00:02:38;;;;;;;10.48;6.88;;;17.60;99.90;;;;;;5052485;28;20044;-85
2023/07/29 00:05:05;;;;;;;12.63;7.05;;;17.60;99.90;;;;;;5019748;28;20124;-85
2023/07/29 00:07:32;;;;;;;10.50;6.60;;;17.70;99.90;;;;;;5019489;28;20460;-84
2023/07/29 00:09:58;;;;;;;9.63;6.55;;;17.60;99.90;;;;;;5035713;28;20034;-85
2023/07/29 00:12:25;;;;;;;11.60;7.22;;;17.60;99.90;;;;;;5019616;28;20034;-85
2023/07/29 00:14:52;;;;;;;14.23;6.93;;;17.60;99.90;;;;;;5035411;28;20095;-84
2023/07/29 00:17:19;;;;;;;13.55;7.95;;;17.60;99.90;;;;;;5035860;28;20052;-85
2023/07/29 00:19:47;;;;;;;10.32;7.47;;;17.50;99.90;;;;;;5019265;28;20037;-85
2023/07/29 00:22:13;;;;;;;10.15;7.35;;;17.50;99.90;;;;;;5019590;28;20132;-85
2023/07/29 00:24:41;;;;;;;13.68;7.53;;;17.50;99.90;;;;;;5019147;28;20083;-85
2023/07/29 00:27:07;;;;;;;11.70;7.50;;;17.50;99.90;;;;;;5019326;28;20444;-84
2023/07/29 00:29:34;;;;;;;12.02;7.28;;;17.50;99.90;;;;;;5035749;28;20067;-85
2023/07/29 00:32:01;;;;;;;11.45;6.85;;;17.50;99.90;;;;;;5035251;28;20447;-85
2023/07/29 00:34:28;;;;;;;10.57;6.55;;;17.50;99.90;;;;;;5035815;28;20069;-85
2023/07/29 00:36:54;;;;;;;11.10;7.10;;;17.50;99.90;;;;;;5018932;28;20041;-85
2023/07/29 00:39:22;;;;;;;10.10;7.35;;;17.50;99.90;;;;;;5019520;28;20052;-85
2023/07/29 00:41:49;;;;;;;12.25;6.75;;;17.50;99.90;;;;;;5019178;28;20103;-85
2023/07/29 00:44:16;;;;;;;9.43;6.70;;;17.50;99.90;;;;;;5019506;28;20040;-85
2023/07/29 00:46:45;;;;;;;13.50;7.55;;;17.40;99.90;;;;;;5035110;28;20049;-85
2023/07/29 00:49:12;;;;;;;10.50;6.88;;;17.40;99.90;;;;;;5051591;28;20033;-85
2023/07/29 00:51:39;;;;;;;11.77;6.80;;;17.40;99.90;;;;;;5051383;28;20124;-85
2023/07/29 00:54:05;;;;;;;12.50;7.05;;;17.30;99.90;;;;;;5018788;28;20072;-85
2023/07/29 00:56:32;;;;;;;12.13;6.97;;;17.30;99.90;;;;;;5051550;28;20045;-84
2023/07/29 00:59:01;;;;;;;10.25;6.82;;;17.30;99.90;;;;;;5018630;28;20037;-85
2023/07/29 01:01:29;;;;;;;11.27;7.30;;;17.30;99.90;;;;;;5051105;28;20055;-84
2023/07/29 01:03:56;;;;;;;10.73;6.15;;;17.20;99.90;;;;;;5018648;28;20489;-84
2023/07/29 01:06:28;;;;;;;10.02;6.72;;;17.20;99.90;;;;;;5018843;28;20045;-85
2023/07/29 01:09:18;;;;;;;12.48;6.30;;;17.20;99.90;;;;;;5051198;28;20041;-84
2023/07/29 01:12:03;;;;;;;10.43;6.95;;;17.20;99.90;;;;;;5034769;28;20402;-84
2023/07/29 01:14:41;;;;;;;9.67;6.93;;;17.20;99.90;;;;;;5051368;28;20041;-85
2023/07/29 01:17:13;;;;;;;12.57;7.10;;;17.20;99.90;;;;;;5034393;28;20041;-84
2023/07/29 01:20:08;;;;;;;13.18;7.05;;;17.20;99.90;;;;;;5035070;28;20041;-84
2023/07/29 01:22:36;;;;;;;11.70;6.77;;;17.20;99.90;;;;;;5050885;28;20041;-84
2023/07/29 01:25:03;;;;;;;11.65;6.85;;;17.20;99.90;;;;;;5050452;28;20041;-84
2023/07/29 01:27:30;;;;;;;12.73;6.80;;;17.20;99.90;;;;;;5018455;28;20065;-84
2023/07/29 01:29:58;;;;;;;16.95;7.72;;;17.20;99.90;;;;;;5050811;28;20045;-84
2023/07/29 01:32:49;;;;;;;13.07;7.50;;;17.20;99.90;;;;;;5050732;28;20056;-84
2023/07/29 01:35:31;;;;;;;11.65;7.45;;;17.30;99.90;;;;;;5050479;28;20041;-85
2023/07/29 01:38:09;;;;;;;14.75;7.82;;;17.20;99.90;;;;;;5050622;28;20041;-84
2023/07/29 01:40:36;;;;;;;11.80;7.32;;;17.20;99.90;;;;;;5050817;28;20441;-84
2023/07/29 01:43:03;;;;;;;13.65;8.18;;;17.20;99.90;;;;;;5017575;28;20083;-85
2023/07/29 01:45:32;;;;;;;12.90;7.75;;;17.20;99.90;;;;;;5050846;28;20042;-84
2023/07/29 01:47:58;;;;;;;11.93;7.15;;;17.20;99.90;;;;;;5017740;28;20042;-84
2023/07/29 01:50:25;;;;;;;13.20;7.50;;;17.10;99.90;;;;;;5017968;28;20045;-84
2023/07/29 01:52:52;;;;;;;11.45;7.55;;;17.10;99.90;;;;;;5050088;28;20120;-84
2023/07/29 01:55:18;;;;;;;15.98;8.25;;;17.10;99.90;;;;;;5033452;28;20124;-84
2023/07/29 01:57:48;;;;;;;15.60;7.82;;;17.00;99.90;;;;;;5033451;28;20049;-84
2023/07/29 02:00:15;;;;;;;12.68;8.25;;;17.00;99.90;;;;;;5050205;28;20045;-85
2023/07/29 02:02:42;;;;;;;12.45;8.07;;;17.00;99.90;;;;;;5049964;28;20172;-85
2023/07/29 02:05:09;;;;;;;12.18;7.75;;;17.00;99.90;;;;;;5017293;28;20124;-84
2023/07/29 02:07:35;;;;;;;14.85;8.30;;;17.00;99.90;;;;;;5034538;28;20056;-84
2023/07/29 02:10:03;;;;;;;13.75;8.13;;;16.90;99.90;;;;;;5029749;28;20042;-84
2023/07/29 02:12:29;;;;;;;12.88;8.00;;;17.00;99.90;;;;;;5029830;28;20088;-84
2023/07/29 02:14:56;;;;;;;12.85;8.32;;;16.90;99.90;;;;;;5046002;28;20430;-84
2023/07/29 02:17:23;;;;;;;12.32;7.70;;;16.90;99.90;;;;;;4998077;28;20046;-84
2023/07/29 02:19:49;;;;;;;11.52;7.85;;;16.90;99.90;;;;;;4997393;28;20046;-84
2023/07/29 02:22:17;;;;;;;13.40;7.90;;;16.90;99.90;;;;;;4997225;28;20053;-84
2023/07/29 02:24:44;;;;;;;10.40;7.53;;;16.90;99.90;;;;;;5029543;28;20498;-85
2023/07/29 02:27:14;;;;;;;12.40;7.53;;;16.90;99.90;;;;;;5013622;28;20104;-84
2023/07/29 02:29:41;;;;;;;10.90;7.32;;;16.90;99.90;;;;;;4997804;28;20042;-85
2023/07/29 02:32:08;;;;;;;11.57;7.57;;;16.90;99.90;;;;;;4997247;28;20034;-85
2023/07/29 02:34:34;;;;;;;12.25;7.60;;;16.90;99.90;;;;;;4997814;28;20109;-84
2023/07/29 02:37:01;;;;;;;11.77;6.82;;;16.90;99.90;;;;;;5013333;28;20148;-84
2023/07/29 02:39:28;;;;;;;15.98;7.28;;;16.90;99.90;;;;;;4998013;28;20038;-85
2023/07/29 02:41:55;;;;;;;11.15;7.60;;;16.90;99.90;;;;;;4997438;28;20042;-85
2023/07/29 02:44:22;;;;;;;13.80;7.72;;;16.90;99.90;;;;;;4997646;28;20383;-85
2023/07/29 02:46:49;;;;;;;13.50;7.75;;;16.90;99.90;;;;;;4997241;28;20048;-84
2023/07/29 02:49:16;;;;;;;12.20;7.57;;;16.80;99.90;;;;;;4997228;28;20533;-85
2023/07/29 02:51:42;;;;;;;10.90;6.82;;;16.80;99.90;;;;;;4997604;28;20058;-84
2023/07/29 02:54:09;;;;;;;14.15;7.88;;;16.80;99.90;;;;;;5013845;28;20482;-84
2023/07/29 02:56:35;;;;;;;12.00;6.75;;;16.70;99.90;;;;;;4997423;28;20096;-85
2023/07/29 02:59:02;;;;;;;11.23;6.88;;;16.80;99.90;;;;;;4996851;28;20516;-84
2023/07/29 03:01:29;;;;;;;11.25;6.32;;;16.70;99.90;;;;;;4997138;28;20041;-85
2023/07/29 03:03:56;;;;;;;12.07;6.95;;;16.70;99.90;;;;;;4997113;28;20513;-85
2023/07/29 03:06:24;;;;;;;14.15;7.03;;;16.70;99.90;;;;;;4997973;28;20058;-85
2023/07/29 03:08:50;;;;;;;10.40;6.80;;;16.60;99.90;;;;;;5028994;28;20062;-84
2023/07/29 03:11:17;;;;;;;10.73;7.07;;;16.60;99.90;;;;;;5028869;28;20715;-84
2023/07/29 03:13:44;;;;;;;15.48;7.45;;;16.50;99.90;;;;;;5029169;28;20038;-84
2023/07/29 03:16:16;;;;;;;9.95;6.90;;;16.60;99.90;;;;;;5029409;28;20050;-84
2023/07/29 03:18:44;;;;;;;11.90;7.07;;;16.50;99.90;;;;;;5029410;28;20490;-84
2023/07/29 03:21:11;;;;;;;11.88;7.03;;;16.50;99.90;;;;;;5028939;28;20077;-84
2023/07/29 03:23:38;;;;;;;10.25;7.00;;;16.50;99.90;;;;;;5013078;28;20084;-84
2023/07/29 03:26:11;;;;;;;11.43;7.20;;;16.50;99.90;;;;;;5029167;28;20034;-84
2023/07/29 03:28:40;;;;;;;12.63;7.25;;;16.50;99.90;;;;;;5029302;28;20073;-84
2023/07/29 03:31:07;;;;;;;15.10;6.57;;;16.50;99.90;;;;;;5028863;28;20077;-85
2023/07/29 03:33:34;;;;;;;12.48;6.32;;;16.50;99.90;;;;;;5029334;28;20077;-84
2023/07/29 03:36:01;;;;;;;13.25;6.88;;;16.50;99.90;;;;;;5029011;28;20081;-84
2023/07/29 03:38:28;;;;;;;11.52;6.38;;;16.50;99.90;;;;;;5028577;28;20132;-84
2023/07/29 03:40:54;;;;;;;12.50;5.97;;;16.40;99.90;;;;;;5012633;28;20486;-84
2023/07/29 03:43:21;;;;;;;11.80;6.60;;;16.40;99.90;;;;;;5012232;28;20088;-84
2023/07/29 03:45:48;;;;;;;12.60;7.00;;;16.40;99.90;;;;;;5028479;28;20565;-84
2023/07/29 03:48:14;;;;;;;9.80;6.25;;;16.40;99.90;;;;;;5012511;28;20429;-84
2023/07/29 03:50:41;;;;;;;12.75;7.10;;;16.40;99.90;;;;;;5028600;28;20041;-84
2023/07/29 03:53:09;;;;;;;11.45;6.43;;;16.40;99.90;;;;;;5028949;28;20038;-84
2023/07/29 03:55:36;;;;;;;16.83;6.57;;;16.30;99.90;;;;;;5013022;28;20038;-84
2023/07/29 03:58:03;;;;;;;10.50;6.78;;;16.30;99.90;;;;;;5028788;28;20049;-84
2023/07/29 04:00:29;;;;;;;10.40;6.53;;;16.30;99.90;;;;;;5028357;28;20104;-84
2023/07/29 04:02:56;;;;;;;13.02;6.53;;;16.30;99.90;;;;;;5013032;28;20041;-84
2023/07/29 04:05:23;;;;;;;13.05;6.13;;;16.30;99.90;;;;;;5012608;28;20049;-84
2023/07/29 04:07:50;;;;;;;13.77;6.35;;;16.30;99.90;;;;;;5032270;28;20436;-85
2023/07/29 04:10:16;;;;;;;10.00;5.93;;;16.30;99.90;;;;;;5032288;28;20042;-84
2023/07/29 04:12:43;;;;;;;10.70;6.80;;;16.30;99.90;;;;;;5032374;28;20041;-85
2023/07/29 04:15:10;;;;;;;9.05;5.70;;;16.30;99.90;;;;;;5032294;28;20072;-84
2023/07/29 04:17:37;;;;;;;10.65;6.53;;;16.30;99.90;;;;;;5032400;28;20048;-84
2023/07/29 04:20:04;;;;;;;10.75;6.32;;;16.30;99.90;;;;;;5052425;28;20073;-84
2023/07/29 04:22:31;;;;;;;9.23;6.15;;;16.30;99.90;;;;;;5051850;28;20517;-84
2023/07/29 04:24:57;;;;;;;9.98;5.93;;;16.30;99.90;;;;;;5052496;28;20132;-84
2023/07/29 04:27:24;;;;;;;11.30;6.30;;;16.30;99.90;;;;;;5035655;28;20041;-84
2023/07/29 04:29:51;;;;;;;9.88;6.18;;;16.30;99.90;;;;;;5052405;28;20490;-84
2023/07/29 04:32:18;;;;;;;9.00;5.72;;;16.30;99.90;;;;;;5035773;28;20037;-84
2023/07/29 04:34:44;;;;;;;9.93;6.30;;;16.30;99.90;;;;;;5035833;28;20034;-84
2023/07/29 04:37:11;;;;;;;11.95;5.80;;;16.30;99.90;;;;;;5052147;28;20514;-84
2023/07/29 04:39:38;;;;;;;11.45;5.72;;;16.40;99.90;;;;;;5035546;28;20077;-84
2023/07/29 04:42:05;;;;;;;10.02;5.85;;;16.40;99.90;;;;;;5035599;28;20132;-85
2023/07/29 04:44:32;;;;;;;10.95;5.35;;;16.40;99.90;;;;;;5035457;28;20041;-84
2023/07/29 04:46:58;;;;;;;7.97;4.50;;;16.40;99.90;;;;;;5035672;28;20076;-84
2023/07/29 04:49:25;;;;;;;8.32;5.20;;;16.50;99.90;;;;;;5035101;28;20045;-84
2023/07/29 04:51:52;;;;;;;11.77;4.95;;;16.50;99.90;;;;;;5035641;28;20038;-84
2023/07/29 04:54:20;;;;;;;8.25;5.30;;;16.50;99.90;;;;;;5051176;28;20041;-84
2023/07/29 04:56:47;;;;;;;9.07;5.43;;;16.60;99.90;;;;;;5035695;28;20083;-84
2023/07/29 04:59:14;;;;;;;9.90;4.85;;;16.60;99.90;;;;;;5035239;28;20037;-84
2023/07/29 05:01:42;;;;;;;9.25;5.40;;;16.70;99.90;;;;;;5035311;28;20053;-84
2023/07/29 05:04:09;;;;;;;7.90;4.63;;;16.70;99.90;;;;;;5035019;28;20409;-84
2023/07/29 05:06:36;;;;;;;8.27;4.85;;;16.80;99.90;;;;;;5034795;28;20056;-84
2023/07/29 05:09:17;;;;;;;8.70;4.72;;;16.80;99.90;;;;;;5051739;28;20049;-84
2023/07/29 05:11:47;;;;;;;8.73;4.40;;;16.90;99.90;;;;;;5051590;28;20044;-84
2023/07/29 05:14:14;;;;;;;9.48;4.32;;;16.90;99.90;;;;;;5051353;28;20037;-84
2023/07/29 05:16:41;;;;;;;8.70;4.32;;;16.90;99.90;;;;;;5051044;28;20072;-84
2023/07/29 05:19:08;;;;;;;8.57;4.38;;;16.90;99.90;;;;;;5035233;28;20536;-84
2023/07/29 05:21:35;;;;;;;8.23;4.07;;;17.00;99.90;;;;;;5034850;28;20041;-84
2023/07/29 05:24:01;;;;;;;7.93;4.15;;;17.00;99.90;;;;;;5051286;28;20056;-84
2023/07/29 05:26:28;;;;;;;7.07;3.90;;;17.00;99.90;;;;;;5034366;28;20405;-84
2023/07/29 05:28:55;;;;;;;8.25;4.75;;;17.00;99.90;;;;;;5051313;28;20045;-84
2023/07/29 05:31:22;;;;;;;7.07;3.90;;;17.10;99.90;;;;;;5049674;28;20045;-84
2023/07/29 05:33:49;;;;;;;9.18;3.83;;;17.10;99.90;;;;;;5051161;28;20041;-85
2023/07/29 05:36:16;;;;;;;8.13;4.15;;;17.10;99.90;;;;;;5050840;28;20041;-85
2023/07/29 05:38:42;;;;;;;7.95;4.10;;;17.10;99.90;;;;;;5034687;28;20136;-84
2023/07/29 05:41:09;;;;;;;8.38;4.05;;;17.10;99.90;;;;;;5034763;28;20079;-84
2023/07/29 05:43:36;;;;;;;7.43;4.25;;;17.10;99.90;;;;;;5050140;28;20045;-84
2023/07/29 05:46:02;;;;;;;6.45;3.58;;;17.20;99.90;;;;;;5034329;28;20049;-84
2023/07/29 05:48:29;;;;;;;9.15;3.80;;;17.10;99.90;;;;;;5034124;28;20052;-84
2023/07/29 05:50:56;;;;;;;5.72;3.30;;;17.20;99.90;;;;;;5034556;28;20037;-84
2023/07/29 05:53:22;;;;;;;8.95;3.63;;;17.20;99.90;;;;;;5033802;28;20128;-85
2023/07/29 05:55:49;;;;;;;6.53;3.35;;;17.20;99.90;;;;;;5050619;28;20390;-85
2023/07/29 05:58:16;;;;;;;5.18;3.17;;;17.20;99.90;;;;;;5034208;28;20034;-84
2023/07/29 06:00:43;;;;;;;6.00;3.00;;;17.20;99.90;;;;;;5033816;28;20064;-84
2023/07/29 06:03:09;;;;;;;4.88;3.10;;;17.30;99.90;;;;;;5033997;28;20060;-84
2023/07/29 06:05:36;;;;;;;5.70;2.78;;;17.30;99.90;;;;;;5033756;28;20441;-84
2023/07/29 06:08:04;;;;;;;5.50;2.63;;;17.30;99.90;;;;;;5033309;28;20509;-84
2023/07/29 06:10:30;;;;;;;5.68;2.90;;;17.40;99.90;;;;;;5049509;28;20041;-84
2023/07/29 06:12:57;;;;;;;6.75;2.65;;;17.40;99.90;;;;;;5049483;28;20508;-84
2023/07/29 06:15:24;;;;;;;6.78;2.92;;;17.40;99.90;;;;;;5049802;28;20037;-84
2023/07/29 06:17:50;;;;;;;7.78;3.30;;;17.50;99.90;;;;;;5033854;28;20517;-84
2023/07/29 06:20:17;;;;;;;4.70;3.00;;;17.50;99.90;;;;;;5049929;28;20045;-84
2023/07/29 06:22:44;;;;;;;5.97;2.50;;;17.50;99.90;;;;;;5050102;28;20045;-84
2023/07/29 06:25:10;;;;;;;4.75;2.65;;;17.50;99.90;;;;;;5033738;28;20049;-84
2023/07/29 06:27:37;;;;;;;7.20;2.80;;;17.50;99.90;;;;;;5032972;28;20077;-84
2023/07/29 06:30:05;;;;;;;5.88;2.55;;;17.50;99.90;;;;;;5033285;28;20455;-84
2023/07/29 06:32:32;;;;;;;5.03;2.30;;;17.50;99.90;;;;;;5033049;28;20398;-85
2023/07/29 06:34:58;;;;;;;6.32;2.75;;;17.50;99.90;;;;;;5049696;28;20037;-85
2023/07/29 06:37:25;;;;;;;6.53;2.30;;;17.60;99.90;;;;;;5035638;28;20509;-85
2023/07/29 06:39:52;;;;;;;6.75;2.42;;;17.60;99.90;;;;;;5050721;28;20037;-85
2023/07/29 06:42:18;;;;;;;3.75;2.33;;;17.60;99.90;;;;;;5033390;28;20393;-84
2023/07/29 06:44:45;;;;;;;7.47;2.28;;;17.70;99.90;;;;;;5033202;28;20095;-85
2023/07/29 06:47:12;;;;;;;4.22;2.35;;;17.70;99.90;;;;;;5033296;28;20037;-85
2023/07/29 06:49:39;;;;;;;5.70;2.40;;;17.70;99.90;;;;;;5033105;28;20448;-85
2023/07/29 06:52:06;;;;;;;5.65;2.85;;;17.80;99.90;;;;;;5033159;28;20409;-84
2023/07/29 06:54:32;;;;;;;7.32;2.65;;;17.80;99.90;;;;;;5032949;28;20409;-84
2023/07/29 06:56:59;;;;;;;5.30;2.53;;;17.90;99.90;;;;;;5033116;28;20037;-85
2023/07/29 06:59:26;;;;;;;6.15;2.47;;;17.90;99.90;;;;;;5049505;28;20045;-85
2023/07/29 07:01:52;;;;;;;5.45;2.35;;;18.00;99.90;;;;;;5048892;28;20049;-85
2023/07/29 07:04:20;;;;;;;4.45;2.28;;;18.20;99.90;;;;;;5049287;28;20069;-85
2023/07/29 07:06:46;;;;;;;8.27;2.58;;;18.30;99.90;;;;;;5032474;28;20049;-85
2023/07/29 07:09:13;;;;;;;4.75;2.22;;;18.50;99.90;;;;;;5017065;28;20044;-85
2023/07/29 07:11:40;;;;;;;5.80;2.53;;;18.50;99.90;;;;;;5048947;28;20045;-85
2023/07/29 07:14:06;;;;;;;5.90;2.58;;;18.50;99.90;;;;;;5016679;28;20715;-85
2023/07/29 07:16:35;;;;;;;4.88;2.38;;;18.50;99.90;;;;;;5016125;28;20037;-85
2023/07/29 07:19:02;;;;;;;5.88;2.78;;;18.50;99.90;;;;;;5048978;28;20198;-85
2023/07/29 07:21:29;;;;;;;8.38;2.50;;;18.50;99.90;;;;;;5049313;28;20176;-85
2023/07/29 07:23:55;;;;;;;5.93;3.00;;;18.50;99.90;;;;;;5016432;28;20053;-85
2023/07/29 07:26:22;;;;;;;6.20;2.83;;;18.60;99.90;;;;;;5016614;28;20128;-85
2023/07/29 07:28:49;;;;;;;6.60;3.45;;;18.70;99.90;;;;;;5016113;28;20034;-85
2023/07/29 07:31:16;;;;;;;7.15;2.90;;;18.90;99.90;;;;;;5016988;28;20575;-85
2023/07/29 07:33:43;;;;;;;9.20;3.72;;;19.00;99.90;;;;;;5016391;28;20068;-85
2023/07/29 07:36:09;;;;;;;6.30;2.83;;;19.20;99.90;;;;;;5016751;28;20203;-85
2023/07/29 07:38:36;;;;;;;6.28;3.08;;;19.20;99.90;;;;;;5016231;28;20481;-85
2023/07/29 07:41:03;;;;;;;7.13;3.47;;;19.30;99.90;;;;;;5049272;28;20041;-85
2023/07/29 07:43:30;;;;;;;6.30;3.05;;;19.30;99.90;;;;;;5016801;28;20040;-85
2023/07/29 07:46:01;;;;;;;6.18;3.40;;;19.20;99.90;;;;;;5032383;28;20042;-85
2023/07/29 07:48:28;;;;;;;8.52;3.28;;;19.20;99.90;;;;;;5049260;28;20029;-85
2023/07/29 07:50:55;;;;;;;7.38;3.78;;;19.20;99.90;;;;;;5016516;28;20037;-85
2023/07/29 07:53:21;;;;;;;9.13;3.67;;;19.10;99.90;;;;;;5017316;28;20046;-85
2023/07/29 07:55:48;;;;;;;6.70;3.67;;;19.20;99.90;;;;;;5036323;28;20129;-85
2023/07/29 07:58:16;;;;;;;10.45;4.10;;;19.40;99.90;;;;;;5020656;28;20045;-85
2023/07/29 08:00:42;;;;;;;7.50;3.47;;;19.50;99.90;;;;;;5020043;28;20052;-85
2023/07/29 08:03:09;;;;;;;8.57;3.70;;;19.50;99.90;;;;;;5020136;28;20049;-85
2023/07/29 08:05:36;;;;;;;6.00;4.07;;;19.70;99.90;;;;;;5020435;28;20132;-85
2023/07/29 08:08:03;;;;;;;8.10;4.50;;;19.60;99.90;;;;;;5052142;28;20114;-85
2023/07/29 08:10:30;;;;;;;7.60;4.53;;;19.70;99.90;;;;;;5052335;28;20053;-85
2023/07/29 08:12:56;;;;;;;7.55;4.50;;;19.60;99.90;;;;;;5019646;28;20069;-85
2023/07/29 08:15:23;;;;;;;11.68;4.60;;;19.50;99.90;;;;;;5019941;28;20453;-85
2023/07/29 08:17:53;;;;;;;7.28;4.22;;;19.50;99.90;;;;;;5019988;28;20524;-85
2023/07/29 08:20:19;;;;;;;5.68;3.50;;;19.70;99.90;;;;;;5019753;28;20042;-85
2023/07/29 08:22:46;;;;;;;7.53;4.38;;;19.80;99.90;;;;;;5019620;28;20564;-85
2023/07/29 08:25:13;;;;;;;9.27;4.88;;;19.90;99.90;;;;;;5019655;28;20068;-85
2023/07/29 08:27:40;;;;;;;7.53;4.05;;;19.80;99.90;;;;;;5035955;28;20037;-85
2023/07/29 08:30:10;;;;;;;8.65;4.35;;;19.80;99.90;;;;;;5035699;28;20045;-85
2023/07/29 08:32:37;;;;;;;5.75;4.00;;;19.80;99.90;;;;;;5020105;28;20082;-85
2023/07/29 08:35:04;;;;;;;8.45;4.00;;;19.80;99.90;;;;;;5019135;28;20042;-85
2023/07/29 08:37:31;;;;;;;7.88;4.10;;;20.00;99.90;;;;;;5019312;28;20072;-85
2023/07/29 08:39:58;;;;;;;8.20;4.57;;;20.20;99.90;;;;;;5019166;28;20648;-85
2023/07/29 08:42:30;;;;;;;8.35;4.50;;;20.20;99.90;;;;;;5019530;28;20161;-85
2023/07/29 08:45:07;;;;;;;7.80;4.18;;;20.20;99.90;;;;;;5051530;28;20401;-85
2023/07/29 08:47:34;;;;;;;6.95;4.25;;;20.30;99.90;;;;;;5051717;28;20048;-85
2023/07/29 08:50:02;;;;;;;6.05;3.78;;;20.30;99.90;;;;;;5051457;28;20042;-85
2023/07/29 08:52:29;;;;;;;8.90;4.10;;;20.40;99.90;;;;;;5051600;28;20041;-85
2023/07/29 08:54:56;;;;;;;7.05;3.85;;;20.60;99.90;;;;;;5035022;28;20120;-85
2023/07/29 08:57:24;;;;;;;7.13;4.07;;;20.70;99.90;;;;;;5019307;28;20041;-85
2023/07/29 08:59:51;;;;;;;7.15;3.80;;;21.00;99.90;;;;;;5051410;28;20417;-85
2023/07/29 09:02:18;;;;;;;5.90;3.78;;;21.10;99.90;;;;;;5035412;28;20068;-85
2023/07/29 09:04:44;;;;;;;8.90;4.30;;;21.40;99.90;;;;;;5050406;28;20559;-85
2023/07/29 09:07:12;;;;;;;8.65;3.88;;;21.60;99.90;;;;;;5018298;28;20049;-85
2023/07/29 09:09:39;;;;;;;5.47;3.63;;;21.70;99.90;;;;;;5019428;28;20470;-85
2023/07/29 09:12:06;;;;;;;6.07;3.60;;;21.60;99.90;;;;;;5018595;28;20120;-85
2023/07/29 09:14:33;;;;;;;6.88;3.30;;;21.40;99.90;;;;;;5019065;28;20041;-85
2023/07/29 09:17:00;;;;;;;6.57;3.28;;;21.10;99.90;;;;;;5051507;28;20048;-85
2023/07/29 09:19:27;;;;;;;5.88;2.97;;;20.90;99.90;;;;;;5035168;28;20052;-85
2023/07/29 09:21:53;;;;;;;4.60;2.58;;;20.80;99.90;;;;;;5050843;28;20134;-85
2023/07/29 09:24:21;;;;;;;5.60;2.63;;;20.70;99.90;;;;;;5051404;28;20072;-85
2023/07/29 09:26:53;;;;;;;4.45;2.47;;;20.70;99.90;;;;;;5034568;28;20489;-85
2023/07/29 09:29:26;;;;;;;4.93;2.58;;;20.80;99.90;;;;;;5051143;28;20486;-85
2023/07/29 09:31:53;;;;;;;4.80;2.40;;;20.90;99.90;;;;;;5034430;28;20041;-85
2023/07/29 09:34:20;;;;;;;4.15;2.53;;;21.10;99.90;;;;;;5018832;28;20033;-85
2023/07/29 09:36:50;;;;;;;6.35;2.53;;;21.20;99.90;;;;;;5035132;28;20087;-85
2023/07/29 09:39:17;;;;;;;5.28;2.47;;;21.20;99.90;;;;;;5018272;28;20045;-85
2023/07/29 09:41:49;;;;;;;5.28;2.80;;;21.20;99.90;;;;;;5018169;28;20052;-85
2023/07/29 09:44:15;;;;;;;4.18;2.50;;;21.00;99.90;;;;;;5050755;28;20052;-85
2023/07/29 09:46:48;;;;;;;6.53;2.90;;;20.90;99.90;;;;;;5019265;28;20095;-85
2023/07/29 09:49:15;;;;;;;5.53;2.75;;;20.80;99.90;;;;;;5018016;28;20038;-85
2023/07/29 09:51:42;;;;;;;6.88;2.70;;;20.90;99.90;;;;;;5018135;28;20076;-85
2023/07/29 09:54:10;;;;;;;3.92;2.40;;;20.90;99.90;;;;;;5017922;28;20076;-86
2023/07/29 09:56:42;;;;;;;6.22;2.55;;;20.90;99.90;;;;;;5034537;28;20052;-85
2023/07/29 09:59:10;;;;;;;6.28;2.40;;;21.20;99.90;;;;;;5050145;28;20071;-85
2023/07/29 10:01:37;;;;;;;5.40;2.13;;;21.20;99.90;;;;;;5034148;28;20037;-85
2023/07/29 10:04:04;;;;;;;8.48;2.60;;;21.20;99.90;;;;;;5050057;28;20408;-85
2023/07/29 10:06:32;;;;;;;4.93;2.13;;;21.30;99.90;;;;;;5050074;28;20068;-85
2023/07/29 10:08:59;;;;;;;7.10;2.10;;;21.50;99.90;;;;;;5050129;28;20437;-85
2023/07/29 10:11:26;;;;;;;5.43;2.22;;;21.60;99.90;;;;;;5050142;28;20034;-85
2023/07/29 10:13:53;;;;;;;6.25;2.10;;;21.90;99.90;;;;;;5050036;28;20041;-85
2023/07/29 10:16:22;;;;;;;4.78;2.00;;;22.00;99.90;;;;;;5033027;28;20037;-85
2023/07/29 10:18:50;;;;;;;6.75;2.20;;;22.00;99.90;;;;;;5017525;28;20421;-85
2023/07/29 10:21:17;;;;;;;4.70;1.98;;;21.80;99.90;;;;;;5017272;28;20087;-85
2023/07/29 10:23:49;;;;;;;3.35;1.90;;;21.60;99.90;;;;;;5033418;28;20494;-85
2023/07/29 10:26:20;;;;;;;6.97;1.90;;;21.50;99.90;;;;;;5049533;28;20079;-85
2023/07/29 10:28:50;;;;;;;4.25;1.90;;;21.50;99.90;;;;;;5050083;28;20824;-86
2023/07/29 10:31:18;;;;;;;5.40;2.00;;;21.70;99.90;;;;;;5033631;28;20042;-85
2023/07/29 10:33:45;;;;;;;5.30;1.80;;;22.00;99.90;;;;;;5033696;28;20033;-85
2023/07/29 10:36:13;;;;;;;4.03;1.85;;;22.10;99.90;;;;;;5032957;28;20715;-85
2023/07/29 10:38:40;;;;;;;3.63;1.50;;;22.40;99.90;;;;;;5049525;28;20083;-86
2023/07/29 10:41:07;;;;;;;6.20;1.73;;;22.60;99.90;;;;;;5049370;28;20041;-86
2023/07/29 10:43:37;;;;;;;3.80;1.60;;;22.70;99.90;;;;;;5033711;28;20561;-86
2023/07/29 10:46:18;;;;;;;5.20;1.85;;;22.80;99.90;;;;;;5049785;28;20117;-85
2023/07/29 10:48:51;;;;;;;5.47;2.00;;;22.80;99.90;;;;;;5049583;28;20064;-85
2023/07/29 10:51:37;;;;;;;3.53;1.60;;;22.60;99.90;;;;;;5049634;28;20052;-85
2023/07/29 10:54:14;;;;;;;3.58;1.60;;;22.80;99.90;;;;;;5049391;28;20037;-86
2023/07/29 10:56:49;;;;;;;5.25;1.65;;;22.70;99.90;;;;;;5049431;28;20053;-85
2023/07/29 10:59:16;;;;;;;3.10;1.60;;;22.80;99.90;;;;;;5049517;28;20493;-85
2023/07/29 11:01:56;;;;;;;4.20;1.70;;;22.70;99.90;;;;;;5049635;28;20159;-85
2023/07/29 11:04:26;;;;;;;5.38;1.92;;;22.60;99.90;;;;;;5049275;28;20049;-85
2023/07/29 11:07:09;;;;;;;3.97;1.55;;;22.50;99.90;;;;;;5049172;28;20489;-85
2023/07/29 11:09:51;;;;;;;6.40;1.70;;;22.50;99.90;;;;;;5049218;28;20094;-85
2023/07/29 11:12:51;;;;;;;3.75;2.10;;;22.80;99.90;;;;;;5049203;28;20511;-85
2023/07/29 11:15:26;;;;;;;3.88;2.00;;;23.00;99.90;;;;;;5032636;28;20087;-85
2023/07/29 11:17:55;;;;;;;5.47;2.03;;;23.40;99.90;;;;;;5032765;28;20124;-85
2023/07/29 11:20:24;;;;;;;8.20;2.00;;;23.50;99.90;;;;;;5032997;28;20052;-86
2023/07/29 11:22:52;;;;;;;6.38;2.03;;;23.60;99.90;;;;;;5032955;28;20041;-86
2023/07/29 11:25:21;;;;;;;4.13;2.05;;;23.60;99.90;;;;;;5032411;28;20072;-85
2023/07/29 11:27:50;;;;;;;5.55;2.10;;;23.60;99.90;;;;;;5032977;28;20753;-85
2023/07/29 11:30:17;;;;;;;5.47;2.15;;;23.50;99.90;;;;;;5033391;28;20077;-85
2023/07/29 11:32:45;;;;;;;4.88;2.03;;;23.20;99.90;;;;;;5017222;28;20069;-85
2023/07/29 11:35:16;;;;;;;5.22;1.80;;;23.00;99.90;;;;;;5033116;28;20046;-85
2023/07/29 11:37:47;;;;;;;4.78;1.40;;;22.90;99.90;;;;;;5033184;28;20387;-85
2023/07/29 11:40:21;;;;;;;5.85;1.45;;;22.90;99.90;;;;;;5047237;28;20044;-85
2023/07/29 11:42:50;;;;;;;5.15;1.55;;;23.00;99.90;;;;;;5036884;28;20503;-85
2023/07/29 11:45:17;;;;;;;3.58;1.40;;;22.90;99.90;;;;;;5036325;28;20049;-85
2023/07/29 11:47:44;;;;;;;2.90;1.33;;;22.70;99.90;;;;;;5036528;28;20046;-85
2023/07/29 11:50:13;;;;;;;4.13;1.70;;;22.80;99.90;;;;;;5036450;28;20040;-85
2023/07/29 11:52:42;;;;;;;2.88;1.45;;;22.80;99.90;;;;;;5020449;28;20041;-85
2023/07/29 11:55:09;;;;;;;2.38;1.30;;;23.00;99.90;;;;;;5052863;28;20060;-85
2023/07/29 11:57:38;;;;;;;3.15;1.20;;;23.20;99.90;;;;;;5036239;28;20444;-85
2023/07/29 12:00:07;;;;;;;2.30;1.15;;;22.80;99.90;;;;;;5052754;28;20128;-85
2023/07/29 12:02:37;;;;;;;3.55;1.20;;;22.80;99.90;;;;;;5052529;28;20544;-85
2023/07/29 12:05:05;;;;;;;3.05;1.10;;;22.80;99.90;;;;;;5036329;28;20094;-85
2023/07/29 12:07:33;;;;;;;3.97;1.27;;;22.80;99.90;;;;;;5035699;28;20049;-85
2023/07/29 12:10:00;;;;;;;3.58;1.40;;;22.70;99.90;;;;;;5052774;28;20202;-85
2023/07/29 12:12:27;;;;;;;4.07;1.20;;;23.00;99.90;;;;;;5052555;28;20588;-85
2023/07/29 12:14:57;;;;;;;6.43;1.48;;;22.90;99.90;;;;;;5020284;28;20153;-85
2023/07/29 12:17:24;;;;;;;5.30;1.20;;;23.00;99.90;;;;;;5020224;28;20050;-85
2023/07/29 12:19:55;;;;;;;3.10;1.20;;;23.00;99.90;;;;;;5020153;28;20049;-85
2023/07/29 12:22:22;;;;;;;2.97;1.20;;;22.90;99.90;;;;;;5019560;28;20052;-85
2023/07/29 12:24:52;;;;;;;2.42;1.10;;;23.10;99.90;;;;;;5020170;28;20049;-85
2023/07/29 12:27:22;;;;;;;2.67;1.10;;;23.40;99.90;;;;;;5035911;28;20080;-85
2023/07/29 12:29:51;;;;;;;3.92;1.38;;;23.60;99.90;;;;;;5019846;28;20044;-86
2023/07/29 12:32:18;;;;;;;3.60;1.30;;;23.50;99.90;;;;;;5019393;28;20096;-85
2023/07/29 12:34:48;;;;;;;3.55;1.20;;;23.20;99.90;;;;;;5036020;28;20068;-85
2023/07/29 12:37:14;;;;;;;6.00;1.55;;;22.90;99.90;;;;;;5035802;28;20409;-86
2023/07/29 12:39:50;;;;;;;3.92;1.52;;;22.80;99.90;;;;;;5051466;28;20049;-86
2023/07/29 12:42:17;;;;;;;4.43;2.15;;;22.60;99.90;;;;;;5052041;28;20037;-85
2023/07/29 12:44:46;;;;;;;3.35;1.50;;;22.40;99.90;;;;;;5020476;28;20045;-86
2023/07/29 12:47:13;;;;;;;4.28;1.63;;;22.30;99.90;;;;;;5019077;28;20091;-86